Time;durP1;ratioP1;P1;durP2;ratioP2;P2;SDS_P1;SDS_P2;PMS_P1;PMS_P2;Temp;Humidity;BMP_temperature;BMP_pressure;BME280_temperature;BME280_humidity;BME280_pressure;Samples;Min_cycle;Max_cycle;Signal;HPM_P1;HPM_P2
2023/10/07 00:00:32;;;;;;;19.60;9.83;;;8.20;99.90;;;;;;4986477;28;20484;-68
2023/10/07 00:03:01;;;;;;;18.07;7.60;;;8.10;99.90;;;;;;4973504;28;21151;-68
2023/10/07 00:05:34;;;;;;;15.77;8.80;;;8.10;99.90;;;;;;4976817;28;20449;-67
2023/10/07 00:08:03;;;;;;;18.90;8.70;;;8.10;99.90;;;;;;4970299;28;20485;-68
2023/10/07 00:10:33;;;;;;;17.67;8.40;;;8.00;99.90;;;;;;4976364;28;20500;-68
2023/10/07 00:13:04;;;;;;;18.47;9.00;;;8.10;99.90;;;;;;4985128;28;20535;-69
2023/10/07 00:15:32;;;;;;;17.60;8.33;;;8.10;99.90;;;;;;4976984;28;20889;-69
2023/10/07 00:18:10;;;;;;;17.30;8.43;;;8.10;99.90;;;;;;4977637;28;20494;-69
2023/10/07 00:20:41;;;;;;;17.50;9.20;;;8.00;99.90;;;;;;4966539;28;20553;-69
2023/10/07 00:23:12;;;;;;;16.53;7.93;;;8.00;99.90;;;;;;4979723;28;20467;-69
2023/10/07 00:25:41;;;;;;;22.00;9.20;;;7.90;99.90;;;;;;4977425;28;20440;-69
2023/10/07 00:28:19;;;;;;;20.43;8.63;;;7.90;99.90;;;;;;4981753;28;20471;-69
2023/10/07 00:30:49;;;;;;;17.23;8.33;;;7.90;99.90;;;;;;4977864;28;20443;-70
2023/10/07 00:33:21;;;;;;;17.03;8.10;;;7.90;99.90;;;;;;4981248;28;20470;-70
2023/10/07 00:35:50;;;;;;;18.73;9.83;;;7.80;99.90;;;;;;4977891;28;20898;-69
2023/10/07 00:38:22;;;;;;;16.27;8.90;;;7.80;99.90;;;;;;4979606;28;20447;-69
2023/10/07 00:40:56;;;;;;;18.17;7.97;;;7.80;99.90;;;;;;4979702;28;20471;-68
2023/10/07 00:43:27;;;;;;;19.87;9.03;;;7.70;99.90;;;;;;4981373;28;20542;-69
2023/10/07 00:46:06;;;;;;;18.10;8.67;;;7.70;99.90;;;;;;4983041;28;20527;-70
2023/10/07 00:48:47;;;;;;;17.43;8.47;;;7.70;99.90;;;;;;4968700;28;20462;-69
2023/10/07 00:51:22;;;;;;;16.07;8.73;;;7.60;99.90;;;;;;4979271;28;20440;-69
2023/10/07 00:53:57;;;;;;;19.67;8.33;;;7.70;99.90;;;;;;4977164;28;20902;-69
2023/10/07 00:56:33;;;;;;;19.67;8.17;;;7.60;99.90;;;;;;4973854;28;20483;-72
2023/10/07 00:59:07;;;;;;;19.13;8.77;;;7.60;99.90;;;;;;4976146;28;21066;-68
2023/10/07 01:01:36;;;;;;;18.00;8.47;;;7.70;99.90;;;;;;4972584;28;20443;-70
2023/10/07 01:04:06;;;;;;;14.60;7.43;;;7.60;99.90;;;;;;4979404;28;20466;-69
2023/10/07 01:06:38;;;;;;;18.10;7.53;;;7.60;99.90;;;;;;4979438;28;20465;-68
2023/10/07 01:09:14;;;;;;;18.17;9.10;;;7.40;99.90;;;;;;4972516;28;20450;-69
2023/10/07 01:11:46;;;;;;;19.70;9.80;;;7.50;99.90;;;;;;4970927;28;20447;-67
2023/10/07 01:14:14;;;;;;;17.50;8.57;;;7.60;99.90;;;;;;4972775;28;20451;-69
2023/10/07 01:16:42;;;;;;;20.93;8.47;;;7.50;99.90;;;;;;4973523;28;21006;-70
2023/10/07 01:19:27;;;;;;;15.60;7.77;;;7.50;99.90;;;;;;4973178;28;20444;-68
2023/10/07 01:21:58;;;;;;;16.77;8.33;;;7.30;99.90;;;;;;4972459;28;20970;-69
2023/10/07 01:24:44;;;;;;;19.17;9.50;;;7.40;99.90;;;;;;4972009;28;20875;-68
2023/10/07 01:27:22;;;;;;;16.33;8.03;;;7.40;99.90;;;;;;4973812;28;20519;-70
2023/10/07 01:29:59;;;;;;;19.53;8.03;;;7.40;99.90;;;;;;4973623;28;20451;-67
2023/10/07 01:32:32;;;;;;;19.83;8.33;;;7.30;99.90;;;;;;4972254;28;21133;-68
2023/10/07 01:35:05;;;;;;;19.27;8.67;;;7.20;99.90;;;;;;4972937;28;20462;-69
2023/10/07 01:37:42;;;;;;;21.50;8.93;;;7.30;99.90;;;;;;4972350;28;21009;-68
2023/10/07 01:40:16;;;;;;;17.67;8.90;;;7.40;99.90;;;;;;4972057;28;20920;-70
2023/10/07 01:42:45;;;;;;;19.43;10.00;;;7.30;99.90;;;;;;4972269;28;21053;-69
2023/10/07 01:45:21;;;;;;;17.83;10.30;;;7.40;99.90;;;;;;4972017;28;20466;-68
2023/10/07 01:47:53;;;;;;;21.80;10.07;;;7.40;99.90;;;;;;4972157;28;20538;-67
2023/10/07 01:50:24;;;;;;;22.47;10.03;;;7.50;99.90;;;;;;4972062;28;20439;-68
2023/10/07 01:52:55;;;;;;;18.13;9.67;;;7.40;99.90;;;;;;4972036;28;20507;-67
2023/10/07 01:55:27;;;;;;;20.97;9.27;;;7.30;99.90;;;;;;4972064;28;20877;-67
2023/10/07 01:57:56;;;;;;;20.00;9.70;;;7.30;99.90;;;;;;4971819;28;20582;-68
2023/10/07 02:00:40;;;;;;;20.23;10.90;;;7.40;99.90;;;;;;4971530;28;20458;-68
2023/10/07 02:03:13;;;;;;;19.27;9.87;;;7.40;99.90;;;;;;4971058;28;20483;-66
2023/10/07 02:05:46;;;;;;;17.43;8.60;;;7.30;99.90;;;;;;4971917;28;20452;-72
2023/10/07 02:08:20;;;;;;;19.40;9.87;;;7.40;99.90;;;;;;4971888;28;20915;-68
2023/10/07 02:10:51;;;;;;;21.33;10.20;;;7.40;99.90;;;;;;4971412;28;20479;-68
2023/10/07 02:13:20;;;;;;;17.70;9.37;;;7.40;99.90;;;;;;4971955;28;20498;-67
2023/10/07 02:15:49;;;;;;;14.00;7.53;;;7.40;99.90;;;;;;4972078;28;20447;-66
2023/10/07 02:18:17;;;;;;;16.33;8.77;;;7.40;99.90;;;;;;4971660;28;20491;-69
2023/10/07 02:20:49;;;;;;;18.83;9.50;;;7.40;99.90;;;;;;4971434;28;20502;-69
2023/10/07 02:23:22;;;;;;;18.43;9.67;;;7.30;99.90;;;;;;4971344;28;20467;-70
2023/10/07 02:25:51;;;;;;;19.90;9.23;;;7.20;99.90;;;;;;4971504;28;20486;-67
2023/10/07 02:28:22;;;;;;;16.23;9.07;;;7.20;99.90;;;;;;4971009;28;20808;-71
2023/10/07 02:31:00;;;;;;;20.20;10.53;;;7.20;99.90;;;;;;4971021;28;20452;-68
2023/10/07 02:33:29;;;;;;;17.70;9.17;;;7.20;99.90;;;;;;4971178;28;20550;-67
2023/10/07 02:35:58;;;;;;;18.53;8.60;;;7.20;99.90;;;;;;4971169;28;20511;-66
2023/10/07 02:38:35;;;;;;;15.27;7.93;;;7.20;99.90;;;;;;4970940;28;20546;-67
2023/10/07 02:41:16;;;;;;;17.10;8.77;;;7.20;99.90;;;;;;4971078;28;20443;-67
2023/10/07 02:43:48;;;;;;;18.73;8.50;;;7.20;99.90;;;;;;4971011;28;21262;-69
2023/10/07 02:46:33;;;;;;;20.60;8.97;;;7.30;99.90;;;;;;4971330;28;20490;-68
2023/10/07 02:49:04;;;;;;;16.23;7.60;;;7.20;99.90;;;;;;4971600;28;20440;-72
2023/10/07 02:51:34;;;;;;;16.53;7.77;;;7.10;99.90;;;;;;4970614;28;20452;-68
2023/10/07 02:54:06;;;;;;;16.97;8.80;;;7.00;99.90;;;;;;4970883;28;20832;-71
2023/10/07 02:56:44;;;;;;;17.03;8.63;;;7.10;99.90;;;;;;4970449;28;20955;-69
2023/10/07 02:59:26;;;;;;;16.07;7.90;;;7.00;99.90;;;;;;4970960;28;20486;-69
2023/10/07 03:02:18;;;;;;;15.07;7.33;;;6.90;99.90;;;;;;4970251;28;20521;-70
2023/10/07 03:05:06;;;;;;;19.83;8.63;;;6.90;99.90;;;;;;4970747;28;20823;-67
2023/10/07 03:07:41;;;;;;;17.23;8.17;;;6.90;99.90;;;;;;4970968;28;20538;-68
2023/10/07 03:10:16;;;;;;;16.73;8.30;;;6.80;99.90;;;;;;4970763;28;20451;-71
2023/10/07 03:12:48;;;;;;;17.70;8.40;;;6.80;99.90;;;;;;4970345;28;20463;-68
2023/10/07 03:15:39;;;;;;;17.43;7.73;;;6.70;99.90;;;;;;4970389;28;20476;-70
2023/10/07 03:18:20;;;;;;;18.43;8.57;;;6.80;99.90;;;;;;4970447;28;20951;-68
2023/10/07 03:21:00;;;;;;;17.00;9.00;;;6.70;99.90;;;;;;4970117;28;20447;-69
2023/10/07 03:23:34;;;;;;;18.57;8.33;;;6.80;99.90;;;;;;4970306;28;20463;-67
2023/10/07 03:26:09;;;;;;;15.70;8.20;;;6.80;99.90;;;;;;4970614;28;20444;-68
2023/10/07 03:28:48;;;;;;;16.43;8.50;;;6.80;99.90;;;;;;4970096;28;20443;-69
2023/10/07 03:31:19;;;;;;;19.30;8.77;;;7.00;99.90;;;;;;4969981;28;20475;-67
2023/10/07 03:33:51;;;;;;;18.43;8.13;;;7.00;99.90;;;;;;4969978;28;21062;-68
2023/10/07 03:36:45;;;;;;;19.20;10.27;;;6.90;99.90;;;;;;4970118;28;20451;-68
2023/10/07 03:39:42;;;;;;;17.70;7.77;;;6.80;99.90;;;;;;4970084;28;20903;-68
2023/10/07 03:42:14;;;;;;;20.90;8.80;;;6.80;99.90;;;;;;4969839;28;20467;-68
2023/10/07 03:44:46;;;;;;;18.13;9.10;;;6.80;99.90;;;;;;4970363;28;21064;-68
2023/10/07 03:47:15;;;;;;;21.50;9.30;;;6.90;99.90;;;;;;4969759;28;20543;-69
2023/10/07 03:49:52;;;;;;;21.70;12.10;;;6.80;99.90;;;;;;4970013;28;20471;-69
2023/10/07 03:52:27;;;;;;;20.67;8.47;;;6.90;99.90;;;;;;4969038;28;20895;-70
2023/10/07 03:54:59;;;;;;;18.23;8.00;;;6.80;99.90;;;;;;4969919;28;21125;-67
2023/10/07 03:57:27;;;;;;;17.63;8.90;;;6.80;99.90;;;;;;4970054;28;20458;-68
2023/10/07 03:59:58;;;;;;;25.70;10.50;;;6.80;99.90;;;;;;4969891;28;20667;-69
2023/10/07 04:02:36;;;;;;;15.63;8.13;;;6.80;99.90;;;;;;4969231;28;20521;-67
2023/10/07 04:05:12;;;;;;;17.17;9.03;;;6.90;99.90;;;;;;4969759;28;20954;-70
2023/10/07 04:07:43;;;;;;;15.50;9.53;;;7.00;99.90;;;;;;4969965;28;20439;-67
2023/10/07 04:10:21;;;;;;;23.53;8.87;;;7.00;99.90;;;;;;4969903;28;20452;-68
2023/10/07 04:12:56;;;;;;;19.30;8.80;;;7.00;99.90;;;;;;4969546;28;21108;-69
2023/10/07 04:15:29;;;;;;;17.07;8.23;;;6.90;99.90;;;;;;4969687;28;20951;-69
2023/10/07 04:17:59;;;;;;;16.43;7.63;;;6.80;99.90;;;;;;4969656;28;20955;-67
2023/10/07 04:20:43;;;;;;;18.20;8.83;;;6.70;99.90;;;;;;4969662;28;20536;-68
2023/10/07 04:23:10;;;;;;;17.03;8.33;;;6.60;99.90;;;;;;4969826;28;21062;-68
2023/10/07 04:25:44;;;;;;;18.70;9.30;;;6.70;99.90;;;;;;4969813;28;20542;-68
2023/10/07 04:28:13;;;;;;;16.93;8.60;;;6.70;99.90;;;;;;4969649;28;20444;-69
2023/10/07 04:30:47;;;;;;;19.60;8.30;;;6.90;99.90;;;;;;4969179;28;20550;-68
2023/10/07 04:33:25;;;;;;;18.53;8.10;;;6.80;99.90;;;;;;4969730;28;20595;-72
2023/10/07 04:36:00;;;;;;;18.33;8.67;;;6.80;99.90;;;;;;4969809;28;20450;-67
2023/10/07 04:38:39;;;;;;;16.03;8.10;;;6.70;99.90;;;;;;4969337;28;20486;-71
2023/10/07 04:43:59;;;;;;;18.50;7.40;;;6.80;99.90;;;;;;4959363;28;20829;-68
2023/10/07 04:46:28;;;;;;;17.97;8.70;;;6.80;99.90;;;;;;4969510;28;21067;-67
2023/10/07 04:48:59;;;;;;;23.10;10.17;;;6.70;99.90;;;;;;4969202;28;20462;-67
2023/10/07 04:51:46;;;;;;;19.73;9.57;;;6.60;99.90;;;;;;4968875;28;20457;-69
2023/10/07 04:54:20;;;;;;;18.33;8.60;;;6.50;99.90;;;;;;4969266;28;20459;-70
2023/10/07 04:56:54;;;;;;;17.23;7.30;;;6.50;99.90;;;;;;4969668;28;20457;-67
2023/10/07 04:59:24;;;;;;;16.40;7.87;;;6.40;99.90;;;;;;4970873;28;20565;-68
2023/10/07 05:01:56;;;;;;;16.17;9.37;;;6.50;99.90;;;;;;4972662;28;20669;-68
2023/10/07 05:04:25;;;;;;;15.50;8.03;;;6.40;99.90;;;;;;4973293;28;20451;-67
2023/10/07 05:06:53;;;;;;;18.63;8.50;;;6.30;99.90;;;;;;4972937;28;21091;-68
2023/10/07 05:09:21;;;;;;;17.67;8.90;;;6.40;99.90;;;;;;4972493;28;20533;-68
2023/10/07 05:11:49;;;;;;;20.73;8.50;;;6.40;99.90;;;;;;4972361;28;20538;-68
2023/10/07 05:14:18;;;;;;;17.60;9.63;;;6.50;99.90;;;;;;4972870;28;21106;-68
2023/10/07 05:16:48;;;;;;;17.40;8.20;;;6.60;99.90;;;;;;4972899;28;20456;-68
2023/10/07 05:19:22;;;;;;;16.20;7.80;;;6.60;99.90;;;;;;4972689;28;20518;-69
2023/10/07 05:22:04;;;;;;;17.80;8.53;;;6.70;99.90;;;;;;4965450;28;20508;-69
2023/10/07 05:24:33;;;;;;;17.97;9.37;;;6.80;99.90;;;;;;4972519;28;20443;-69
2023/10/07 05:27:02;;;;;;;17.07;9.10;;;6.80;99.90;;;;;;4972639;28;20447;-68
2023/10/07 05:29:30;;;;;;;23.00;9.53;;;7.00;99.90;;;;;;4972283;28;20505;-67
2023/10/07 05:32:00;;;;;;;18.33;7.93;;;7.10;99.90;;;;;;4972099;28;20471;-67
2023/10/07 05:34:33;;;;;;;19.57;8.80;;;7.30;99.90;;;;;;4972500;28;20824;-69
2023/10/07 05:37:04;;;;;;;17.10;7.80;;;7.40;99.90;;;;;;4971832;28;20444;-69
2023/10/07 05:39:32;;;;;;;16.23;8.70;;;7.50;99.90;;;;;;4971986;28;20483;-67
2023/10/07 05:42:03;;;;;;;16.70;9.50;;;7.40;99.90;;;;;;4971898;28;20507;-68
2023/10/07 05:44:32;;;;;;;15.93;7.60;;;7.50;99.90;;;;;;4971940;28;20448;-68
2023/10/07 05:47:02;;;;;;;17.00;7.80;;;7.50;99.90;;;;;;4972049;28;20455;-70
2023/10/07 05:49:32;;;;;;;14.83;7.60;;;7.50;99.90;;;;;;4971949;28;20504;-67
2023/10/07 05:52:00;;;;;;;15.97;7.27;;;7.50;99.90;;;;;;4971753;28;20872;-69
2023/10/07 05:54:31;;;;;;;16.50;7.83;;;7.60;99.90;;;;;;4971978;28;20701;-68
2023/10/07 05:56:59;;;;;;;14.60;7.97;;;7.70;99.90;;;;;;4972256;28;20835;-69
2023/10/07 05:59:33;;;;;;;15.83;7.60;;;7.70;99.90;;;;;;4971810;28;21030;-67
2023/10/07 06:02:05;;;;;;;15.20;7.50;;;7.80;99.90;;;;;;4971768;28;20538;-71
2023/10/07 06:04:36;;;;;;;19.73;9.70;;;7.80;99.90;;;;;;4972248;28;20452;-68
2023/10/07 06:07:06;;;;;;;17.47;8.30;;;7.80;99.90;;;;;;4972384;28;20458;-70
2023/10/07 06:09:36;;;;;;;15.33;8.80;;;7.80;99.90;;;;;;4972028;28;20531;-68
2023/10/07 06:12:07;;;;;;;13.90;7.07;;;7.80;99.90;;;;;;4971148;28;20486;-69
2023/10/07 06:14:36;;;;;;;15.03;8.10;;;7.90;99.90;;;;;;4971864;28;20460;-68
2023/10/07 06:17:06;;;;;;;17.10;8.60;;;8.10;99.90;;;;;;4971470;28;20451;-72
2023/10/07 06:19:35;;;;;;;15.10;7.43;;;8.20;99.90;;;;;;4971119;28;20490;-71
2023/10/07 06:22:11;;;;;;;23.70;7.73;;;8.30;99.90;;;;;;4970871;28;20510;-69
2023/10/07 06:24:40;;;;;;;13.90;7.10;;;8.40;99.90;;;;;;4971008;28;20453;-69
2023/10/07 06:27:11;;;;;;;13.50;7.93;;;8.40;99.90;;;;;;4970822;28;20462;-69
2023/10/07 06:29:43;;;;;;;14.77;7.93;;;8.60;99.90;;;;;;4970867;28;20469;-68
2023/10/07 06:32:28;;;;;;;17.43;8.03;;;8.60;99.90;;;;;;4971809;28;20473;-71
2023/10/07 06:34:59;;;;;;;16.10;7.60;;;8.70;99.90;;;;;;4971562;28;20957;-68
2023/10/07 06:37:29;;;;;;;16.67;7.47;;;8.70;99.90;;;;;;4971373;28;20476;-68
2023/10/07 06:40:00;;;;;;;14.37;7.33;;;8.80;99.90;;;;;;4971324;28;20485;-68
2023/10/07 06:42:29;;;;;;;15.13;6.70;;;8.90;99.90;;;;;;4970950;28;20473;-67
2023/10/07 06:45:02;;;;;;;16.50;7.10;;;8.90;99.90;;;;;;4971326;28;20460;-66
2023/10/07 06:47:32;;;;;;;16.23;6.97;;;9.00;99.90;;;;;;4971246;28;21212;-66
2023/10/07 06:50:02;;;;;;;20.77;8.37;;;9.20;99.90;;;;;;4970760;28;20476;-68
2023/10/07 06:52:32;;;;;;;15.20;6.73;;;9.30;99.90;;;;;;4970571;28;20565;-69
2023/10/07 06:55:02;;;;;;;13.80;5.83;;;9.50;99.90;;;;;;4971001;28;20542;-69
2023/10/07 06:57:42;;;;;;;13.00;6.80;;;9.80;99.90;;;;;;4971226;28;20463;-68
2023/10/07 07:00:16;;;;;;;18.17;7.03;;;10.10;99.90;;;;;;4970921;28;20495;-67
2023/10/07 07:02:54;;;;;;;14.97;6.97;;;10.30;99.90;;;;;;4970487;28;20473;-68
2023/10/07 07:05:24;;;;;;;14.20;6.20;;;10.40;99.90;;;;;;4976793;28;20440;-67
2023/10/07 07:07:53;;;;;;;15.73;7.80;;;10.70;99.90;;;;;;4970949;28;20505;-68
2023/10/07 07:10:32;;;;;;;14.43;7.10;;;11.00;99.90;;;;;;4978401;28;20518;-68
2023/10/07 07:13:05;;;;;;;12.57;5.87;;;11.30;99.90;;;;;;4970285;28;20473;-69
2023/10/07 07:15:37;;;;;;;15.50;6.40;;;11.60;99.90;;;;;;4970800;28;20446;-69
2023/10/07 07:18:19;;;;;;;14.70;6.47;;;11.80;99.90;;;;;;4970682;28;20877;-68
2023/10/07 07:21:00;;;;;;;13.60;6.27;;;11.70;99.90;;;;;;4970176;28;20576;-70
2023/10/07 07:23:39;;;;;;;12.80;5.40;;;11.80;99.90;;;;;;4970015;28;20480;-68
2023/10/07 07:26:11;;;;;;;13.57;6.10;;;12.00;99.90;;;;;;4970835;28;20882;-70
2023/10/07 07:28:42;;;;;;;12.33;5.47;;;12.10;99.90;;;;;;4970442;28;20893;-69
2023/10/07 07:31:12;;;;;;;12.10;5.83;;;12.10;99.90;;;;;;4970090;28;20447;-67
2023/10/07 07:33:41;;;;;;;13.47;5.60;;;12.30;99.90;;;;;;4970278;28;20858;-70
2023/10/07 07:36:18;;;;;;;16.20;6.07;;;12.30;99.90;;;;;;4970137;28;21004;-68
2023/10/07 07:38:47;;;;;;;11.00;5.57;;;12.10;99.90;;;;;;4970204;28;20457;-67
2023/10/07 07:41:29;;;;;;;12.10;5.00;;;12.00;99.90;;;;;;4969518;28;21073;-68
2023/10/07 07:43:59;;;;;;;13.87;6.03;;;12.10;99.90;;;;;;4969926;28;20877;-67
2023/10/07 07:46:30;;;;;;;12.77;5.40;;;12.10;99.90;;;;;;4970193;28;20447;-70
2023/10/07 07:49:06;;;;;;;12.37;5.77;;;12.10;99.90;;;;;;4970010;28;20443;-69
2023/10/07 07:51:40;;;;;;;13.93;5.20;;;12.10;99.90;;;;;;4969447;28;20449;-69
2023/10/07 07:54:09;;;;;;;67.43;13.87;;;12.20;99.90;;;;;;4970168;28;20448;-67
2023/10/07 07:56:38;;;;;;;12.60;5.10;;;12.30;99.90;;;;;;4969901;28;20872;-68
2023/10/07 07:59:13;;;;;;;12.57;4.63;;;12.40;99.90;;;;;;4969976;28;20446;-71
2023/10/07 08:01:44;;;;;;;16.20;6.55;;;12.60;99.90;;;;;;4968691;28;20457;-69
2023/10/07 08:04:17;;;;;;;14.20;5.80;;;12.80;99.90;;;;;;4970261;28;20208;-67
2023/10/07 08:06:50;;;;;;;13.87;5.33;;;13.20;99.90;;;;;;4969961;28;20451;-68
2023/10/07 08:09:21;;;;;;;12.10;4.87;;;13.70;99.90;;;;;;4969856;28;20867;-71
2023/10/07 08:11:49;;;;;;;13.30;5.60;;;14.20;99.90;;;;;;4969688;28;20530;-68
2023/10/07 08:14:18;;;;;;;13.80;5.60;;;14.80;99.90;;;;;;4970123;28;20454;-67
2023/10/07 08:16:51;;;;;;;10.70;4.33;;;15.10;99.90;;;;;;4961837;28;20527;-67
2023/10/07 08:19:23;;;;;;;12.17;4.63;;;15.30;99.90;;;;;;4969649;28;20454;-71
2023/10/07 08:21:54;;;;;;;12.27;5.67;;;15.60;99.90;;;;;;4969476;28;20909;-71
2023/10/07 08:24:22;;;;;;;12.30;5.30;;;15.90;99.90;;;;;;4969925;28;20445;-70
2023/10/07 08:26:59;;;;;;;12.57;4.60;;;16.00;99.90;;;;;;4969851;28;20465;-70
2023/10/07 08:29:34;;;;;;;13.30;4.33;;;16.10;99.90;;;;;;4969705;28;20513;-68
2023/10/07 08:32:11;;;;;;;13.53;5.20;;;16.20;99.90;;;;;;4969089;28;20473;-66
2023/10/07 08:34:39;;;;;;;13.90;4.53;;;16.30;99.90;;;;;;4972286;28;20865;-66
2023/10/07 08:37:15;;;;;;;12.33;4.40;;;16.40;99.90;;;;;;4973553;28;20828;-66
2023/10/07 08:39:45;;;;;;;11.03;4.73;;;16.50;99.90;;;;;;4973394;28;20457;-67
2023/10/07 08:42:18;;;;;;;14.20;4.93;;;17.00;99.90;;;;;;4972859;28;20533;-67
2023/10/07 08:44:54;;;;;;;11.10;4.70;;;17.30;99.90;;;;;;4973183;28;21139;-67
2023/10/07 08:47:23;;;;;;;13.00;5.17;;;17.90;99.90;;;;;;4973099;28;20495;-67
2023/10/07 08:49:56;;;;;;;11.60;4.80;;;18.00;99.90;;;;;;4965639;28;20448;-66
2023/10/07 08:52:29;;;;;;;14.97;5.30;;;18.20;99.90;;;;;;4972682;28;20534;-68
2023/10/07 08:54:59;;;;;;;14.83;4.40;;;18.00;99.90;;;;;;4973103;28;20458;-67
2023/10/07 08:57:27;;;;;;;12.70;4.87;;;18.10;99.90;;;;;;4973403;28;20454;-67
2023/10/07 08:59:59;;;;;;;11.67;4.70;;;18.10;99.90;;;;;;4972697;28;20451;-67
2023/10/07 09:02:30;;;;;;;15.70;5.07;;;18.20;99.90;;;;;;4972492;28;20575;-66
2023/10/07 09:04:59;;;;;;;12.27;4.60;;;18.20;99.90;;;;;;4973228;28;20462;-66
2023/10/07 09:07:32;;;;;;;11.90;5.37;;;18.00;99.90;;;;;;4972763;28;20444;-67
2023/10/07 09:10:14;;;;;;;11.30;4.20;;;17.90;99.90;;;;;;4972850;28;21065;-66
2023/10/07 09:12:48;;;;;;;11.57;5.03;;;18.00;99.90;;;;;;4971655;28;20876;-66
2023/10/07 09:15:20;;;;;;;13.73;4.93;;;18.20;99.90;;;;;;4972423;28;21025;-66
2023/10/07 09:17:49;;;;;;;10.80;4.60;;;18.40;99.90;;;;;;4972250;28;20453;-66
2023/10/07 09:20:29;;;;;;;12.70;4.23;;;18.30;99.90;;;;;;4972574;28;20897;-66
2023/10/07 09:23:07;;;;;;;12.53;4.67;;;18.30;99.90;;;;;;4972716;28;20915;-67
2023/10/07 09:25:35;;;;;;;10.53;4.67;;;18.40;99.90;;;;;;4972852;28;20490;-66
2023/10/07 09:28:07;;;;;;;11.80;4.90;;;18.60;99.90;;;;;;4973083;28;20439;-66
2023/10/07 09:30:44;;;;;;;14.00;5.57;;;18.80;99.90;;;;;;4972359;28;20462;-67
2023/10/07 09:33:17;;;;;;;11.57;4.50;;;18.90;99.90;;;;;;4972375;28;20459;-67
2023/10/07 09:35:47;;;;;;;9.97;4.47;;;19.20;99.30;;;;;;4972648;28;20443;-67
2023/10/07 09:38:27;;;;;;;11.83;5.40;;;19.20;99.50;;;;;;4970028;28;20538;-67
2023/10/07 09:43:51;;;;;;;11.17;5.17;;;19.40;98.70;;;;;;4944443;28;21034;-67
2023/10/07 09:46:24;;;;;;;12.40;5.20;;;19.40;98.70;;;;;;4971144;28;20440;-70
2023/10/07 09:49:06;;;;;;;12.60;4.97;;;19.30;98.40;;;;;;4970695;28;20442;-67
2023/10/07 09:51:41;;;;;;;14.77;5.70;;;19.20;99.60;;;;;;4971149;28;20446;-69
2023/10/07 09:54:27;;;;;;;13.97;5.00;;;19.20;97.20;;;;;;4971922;28;20455;-65
2023/10/07 09:57:19;;;;;;;13.10;4.30;;;19.00;98.00;;;;;;4969458;28;20447;-67
2023/10/07 10:00:26;;;;;;;14.80;5.23;;;19.10;98.30;;;;;;4971430;28;20436;-67
2023/10/07 10:03:12;;;;;;;14.60;5.00;;;19.20;96.80;;;;;;4971178;28;21024;-66
2023/10/07 10:05:56;;;;;;;16.00;5.87;;;19.50;97.50;;;;;;4972450;28;20455;-67
2023/10/07 10:08:59;;;;;;;10.50;4.50;;;20.00;96.10;;;;;;4971904;28;20935;-69
2023/10/07 10:11:44;;;;;;;12.93;5.80;;;20.00;95.10;;;;;;4971615;28;20444;-68
2023/10/07 10:14:19;;;;;;;13.33;4.90;;;20.30;96.60;;;;;;4971799;28;20436;-67
2023/10/07 10:16:51;;;;;;;13.80;5.77;;;20.60;97.60;;;;;;4972216;28;20444;-67
2023/10/07 10:19:26;;;;;;;13.77;5.30;;;20.90;96.10;;;;;;4972035;28;20448;-68
2023/10/07 10:21:53;;;;;;;12.23;4.73;;;21.00;95.10;;;;;;4971176;28;20489;-67
2023/10/07 10:24:28;;;;;;;11.17;5.10;;;21.20;95.40;;;;;;4971696;28;20543;-69
2023/10/07 10:27:09;;;;;;;15.13;6.20;;;21.30;91.80;;;;;;4971681;28;20439;-66
2023/10/07 10:29:52;;;;;;;13.20;5.90;;;21.30;93.40;;;;;;4971718;28;20490;-67
2023/10/07 10:32:28;;;;;;;12.90;4.80;;;21.50;92.70;;;;;;4971262;28;20469;-68
2023/10/07 10:35:00;;;;;;;11.40;4.47;;;21.40;89.60;;;;;;4971561;28;20447;-66
2023/10/07 10:37:30;;;;;;;12.73;4.63;;;21.40;90.70;;;;;;4971131;28;20456;-67
2023/10/07 10:40:05;;;;;;;15.40;4.30;;;21.30;89.80;;;;;;4971368;28;20450;-67
2023/10/07 10:42:41;;;;;;;10.93;3.83;;;21.10;88.10;;;;;;4970687;28;20506;-69
2023/10/07 10:45:18;;;;;;;10.30;3.20;;;20.80;87.00;;;;;;4971551;28;20459;-67
2023/10/07 10:47:50;;;;;;;8.97;2.73;;;20.70;83.90;;;;;;4971334;28;20840;-67
2023/10/07 10:50:22;;;;;;;9.77;2.90;;;20.80;83.50;;;;;;4971461;28;20455;-67
2023/10/07 10:52:50;;;;;;;8.90;2.80;;;20.80;82.30;;;;;;4970607;28;20483;-69
2023/10/07 10:55:18;;;;;;;9.07;2.23;;;20.90;82.20;;;;;;4971211;28;20466;-67
2023/10/07 10:57:48;;;;;;;9.00;2.60;;;20.70;80.30;;;;;;4970727;28;20452;-67
2023/10/07 11:00:21;;;;;;;10.50;3.10;;;20.50;81.20;;;;;;4970671;28;20455;-67
2023/10/07 11:02:51;;;;;;;10.30;2.90;;;20.50;81.50;;;;;;4970117;28;20886;-70
2023/10/07 11:05:20;;;;;;;9.33;2.63;;;20.40;80.30;;;;;;4970005;28;20827;-68
2023/10/07 11:07:50;;;;;;;8.30;2.43;;;20.50;83.10;;;;;;4970588;28;21314;-69
2023/10/07 11:10:23;;;;;;;8.80;2.70;;;20.60;81.10;;;;;;4970287;28;20563;-69
2023/10/07 11:12:56;;;;;;;9.50;3.50;;;20.80;81.60;;;;;;4970298;28;20491;-66
2023/10/07 11:15:25;;;;;;;9.03;2.70;;;20.80;80.80;;;;;;4970646;28;20534;-66
2023/10/07 11:17:56;;;;;;;8.73;3.00;;;20.80;81.20;;;;;;4970162;28;20444;-66
2023/10/07 11:20:24;;;;;;;10.57;2.80;;;21.00;81.60;;;;;;4969328;28;20527;-67
2023/10/07 11:22:54;;;;;;;8.90;2.53;;;21.20;80.50;;;;;;4968352;28;20475;-68
2023/10/07 11:25:24;;;;;;;10.13;2.70;;;21.40;80.40;;;;;;4969781;28;20452;-68
2023/10/07 11:27:55;;;;;;;10.13;3.30;;;21.20;78.20;;;;;;4962218;28;20440;-67
2023/10/07 11:30:24;;;;;;;8.93;2.63;;;20.80;79.00;;;;;;4969686;28;20935;-66
2023/10/07 11:32:52;;;;;;;9.67;2.97;;;20.60;79.80;;;;;;4968429;28;20495;-66
2023/10/07 11:35:27;;;;;;;8.73;3.20;;;20.60;81.90;;;;;;4970447;28;20459;-69
2023/10/07 11:37:58;;;;;;;9.80;3.37;;;20.50;80.90;;;;;;4962101;28;20510;-67
2023/10/07 11:40:27;;;;;;;8.97;3.13;;;20.50;81.60;;;;;;4969941;28;20452;-68
2023/10/07 11:43:04;;;;;;;11.00;2.70;;;20.40;80.80;;;;;;4969605;28;21011;-69
2023/10/07 11:45:32;;;;;;;8.83;3.30;;;20.40;81.70;;;;;;4967626;28;20471;-67
2023/10/07 11:48:00;;;;;;;10.63;2.93;;;20.40;82.50;;;;;;4968801;28;20490;-67
2023/10/07 11:50:29;;;;;;;12.30;3.60;;;20.40;81.40;;;;;;4968555;28;20999;-67
2023/10/07 11:53:00;;;;;;;9.80;2.97;;;20.60;81.00;;;;;;4968287;28;20476;-68
2023/10/07 11:55:31;;;;;;;10.50;3.60;;;21.00;81.00;;;;;;4968883;28;20543;-68
2023/10/07 11:58:00;;;;;;;11.33;3.20;;;21.10;79.60;;;;;;4970927;28;20458;-67
2023/10/07 12:00:34;;;;;;;9.87;3.30;;;21.10;77.80;;;;;;4969097;28;20511;-66
2023/10/07 12:03:06;;;;;;;9.67;2.60;;;21.10;77.90;;;;;;4965212;28;20715;-69
2023/10/07 12:05:38;;;;;;;11.17;3.43;;;21.20;78.90;;;;;;4968796;28;20455;-69
2023/10/07 12:08:11;;;;;;;9.13;2.77;;;21.10;78.10;;;;;;4968181;28;20447;-67
2023/10/07 12:10:40;;;;;;;11.83;3.30;;;21.10;78.00;;;;;;4971941;28;20510;-71
2023/10/07 12:13:11;;;;;;;10.33;3.00;;;21.20;78.40;;;;;;4972327;28;20530;-69
2023/10/07 12:15:42;;;;;;;8.63;2.77;;;21.20;79.10;;;;;;4972807;28;20451;-68
2023/10/07 12:18:25;;;;;;;8.40;2.87;;;21.30;78.70;;;;;;4967598;28;20443;-70
2023/10/07 12:20:55;;;;;;;10.70;3.00;;;21.20;78.90;;;;;;4967828;28;20967;-70
2023/10/07 12:23:24;;;;;;;9.70;2.97;;;21.40;80.10;;;;;;4968425;28;20535;-69
2023/10/07 12:25:52;;;;;;;11.23;2.80;;;21.50;76.60;;;;;;4968810;28;20444;-69
2023/10/07 12:28:21;;;;;;;10.67;3.13;;;21.70;76.90;;;;;;4968357;28;20447;-71
2023/10/07 12:30:51;;;;;;;10.20;3.33;;;21.70;75.20;;;;;;4967297;28;20447;-73
2023/10/07 12:33:19;;;;;;;9.73;3.10;;;21.90;75.70;;;;;;4968253;28;20460;-69
2023/10/07 12:35:50;;;;;;;12.20;3.10;;;21.80;73.00;;;;;;4968526;28;20460;-70
2023/10/07 12:38:19;;;;;;;9.10;3.00;;;21.80;72.00;;;;;;4970071;28;20474;-69
2023/10/07 12:40:47;;;;;;;11.37;3.40;;;21.80;71.30;;;;;;4968488;28;20491;-70
2023/10/07 12:43:16;;;;;;;8.47;2.50;;;21.90;72.80;;;;;;4969493;28;20491;-70
2023/10/07 12:45:45;;;;;;;9.23;3.00;;;21.90;74.30;;;;;;4967554;28;20448;-72
2023/10/07 12:48:13;;;;;;;12.63;3.43;;;21.90;72.60;;;;;;4968327;28;20483;-70
2023/10/07 12:50:42;;;;;;;9.07;2.77;;;21.80;73.20;;;;;;4967366;28;20448;-68
2023/10/07 12:53:11;;;;;;;7.93;2.70;;;21.70;71.20;;;;;;4967515;28;20511;-74
2023/10/07 12:55:39;;;;;;;8.87;2.97;;;21.70;71.50;;;;;;4968015;28;20555;-67
2023/10/07 12:58:09;;;;;;;9.80;2.73;;;21.60;70.00;;;;;;4967920;28;20444;-69
2023/10/07 13:00:37;;;;;;;10.17;3.47;;;21.80;71.70;;;;;;4967132;28;21057;-68
2023/10/07 13:03:06;;;;;;;8.33;2.67;;;21.90;71.90;;;;;;4967344;28;20571;-69
2023/10/07 13:05:37;;;;;;;9.63;3.30;;;22.00;70.30;;;;;;4965692;28;20927;-68
2023/10/07 13:08:12;;;;;;;10.60;3.37;;;22.10;71.30;;;;;;4967769;28;21022;-67
2023/10/07 13:10:40;;;;;;;9.70;3.20;;;21.90;69.90;;;;;;4966037;28;20442;-71
2023/10/07 13:13:08;;;;;;;9.20;3.33;;;21.90;69.40;;;;;;4967368;28;20456;-68
2023/10/07 13:15:37;;;;;;;9.77;3.10;;;22.10;70.90;;;;;;4968037;28;20494;-69
2023/10/07 13:18:09;;;;;;;9.50;3.20;;;22.40;71.00;;;;;;4967812;28;20525;-69